sensor_id;sensor_type;location;lat;lon;timestamp;P1;durP1;ratioP1;P2;durP2;ratioP2
49488;SDS011;35382;51.484;11.476;2022-10-26T00:00:36;9.10;;;4.38;;
49488;SDS011;35382;51.484;11.476;2022-10-26T00:02:17;13.70;;;5.10;;
49488;SDS011;35382;51.484;11.476;2022-10-26T00:03:58;10.65;;;4.90;;
49488;SDS011;35382;51.484;11.476;2022-10-26T00:05:39;9.93;;;4.80;;
49488;SDS011;35382;51.484;11.476;2022-10-26T00:07:20;9.15;;;4.82;;
49488;SDS011;35382;51.484;11.476;2022-10-26T00:09:01;8.48;;;5.10;;
49488;SDS011;35382;51.484;11.476;2022-10-26T00:10:42;8.60;;;4.43;;
49488;SDS011;35382;51.484;11.476;2022-10-26T00:12:23;8.07;;;4.10;;
49488;SDS011;35382;51.484;11.476;2022-10-26T00:14:04;9.63;;;4.90;;
49488;SDS011;35382;51.484;11.476;2022-10-26T00:15:45;9.48;;;4.28;;
49488;SDS011;35382;51.484;11.476;2022-10-26T00:17:26;6.57;;;4.05;;
49488;SDS011;35382;51.484;11.476;2022-10-26T00:19:07;10.32;;;4.65;;
49488;SDS011;35382;51.484;11.476;2022-10-26T00:20:48;8.65;;;4.43;;
49488;SDS011;35382;51.484;11.476;2022-10-26T00:22:29;6.28;;;4.43;;
49488;SDS011;35382;51.484;11.476;2022-10-26T00:24:10;9.32;;;4.60;;
49488;SDS011;35382;51.484;11.476;2022-10-26T00:25:55;7.97;;;4.57;;
49488;SDS011;35382;51.484;11.476;2022-10-26T00:27:37;10.13;;;4.75;;
49488;SDS011;35382;51.484;11.476;2022-10-26T00:29:18;7.25;;;4.40;;
49488;SDS011;35382;51.484;11.476;2022-10-26T00:30:59;9.73;;;4.63;;
49488;SDS011;35382;51.484;11.476;2022-10-26T00:32:43;14.82;;;5.93;;
49488;SDS011;35382;51.484;11.476;2022-10-26T00:34:24;9.20;;;5.15;;
49488;SDS011;35382;51.484;11.476;2022-10-26T00:36:05;9.63;;;5.03;;
49488;SDS011;35382;51.484;11.476;2022-10-26T00:37:46;8.85;;;5.28;;
49488;SDS011;35382;51.484;11.476;2022-10-26T00:39:27;7.97;;;4.60;;
49488;SDS011;35382;51.484;11.476;2022-10-26T00:41:10;7.85;;;4.88;;
49488;SDS011;35382;51.484;11.476;2022-10-26T00:42:53;9.13;;;4.90;;
49488;SDS011;35382;51.484;11.476;2022-10-26T00:46:31;10.30;;;4.43;;
49488;SDS011;35382;51.484;11.476;2022-10-26T00:48:20;8.77;;;4.85;;
49488;SDS011;35382;51.484;11.476;2022-10-26T00:50:07;10.98;;;4.88;;
49488;SDS011;35382;51.484;11.476;2022-10-26T00:51:51;12.20;;;5.43;;
49488;SDS011;35382;51.484;11.476;2022-10-26T00:53:33;9.32;;;5.15;;
49488;SDS011;35382;51.484;11.476;2022-10-26T00:55:15;11.73;;;5.50;;
49488;SDS011;35382;51.484;11.476;2022-10-26T00:57:00;11.00;;;5.35;;
49488;SDS011;35382;51.484;11.476;2022-10-26T00:58:41;14.00;;;5.57;;
49488;SDS011;35382;51.484;11.476;2022-10-26T01:00:23;9.43;;;4.82;;
49488;SDS011;35382;51.484;11.476;2022-10-26T01:02:04;7.38;;;4.75;;
49488;SDS011;35382;51.484;11.476;2022-10-26T01:03:45;7.60;;;4.93;;
49488;SDS011;35382;51.484;11.476;2022-10-26T01:05:27;7.95;;;4.32;;
49488;SDS011;35382;51.484;11.476;2022-10-26T01:07:09;10.23;;;5.22;;
49488;SDS011;35382;51.484;11.476;2022-10-26T01:08:51;10.43;;;5.07;;
49488;SDS011;35382;51.484;11.476;2022-10-26T01:10:32;10.65;;;5.57;;
49488;SDS011;35382;51.484;11.476;2022-10-26T01:12:15;11.27;;;4.75;;
49488;SDS011;35382;51.484;11.476;2022-10-26T01:13:56;9.57;;;5.00;;
49488;SDS011;35382;51.484;11.476;2022-10-26T01:18:04;15.02;;;5.45;;
49488;SDS011;35382;51.484;11.476;2022-10-26T01:23:47;12.48;;;6.45;;
49488;SDS011;35382;51.484;11.476;2022-10-26T01:26:11;13.73;;;6.00;;
49488;SDS011;35382;51.484;11.476;2022-10-26T01:28:01;9.45;;;6.13;;
49488;SDS011;35382;51.484;11.476;2022-10-26T01:31:52;10.02;;;5.88;;
49488;SDS011;35382;51.484;11.476;2022-10-26T01:33:41;10.45;;;5.85;;
49488;SDS011;35382;51.484;11.476;2022-10-26T01:37:45;10.32;;;5.68;;
49488;SDS011;35382;51.484;11.476;2022-10-26T01:41:38;10.35;;;5.80;;
49488;SDS011;35382;51.484;11.476;2022-10-26T01:43:27;14.10;;;5.90;;
49488;SDS011;35382;51.484;11.476;2022-10-26T01:45:12;12.23;;;5.68;;
49488;SDS011;35382;51.484;11.476;2022-10-26T01:46:54;10.90;;;5.57;;
49488;SDS011;35382;51.484;11.476;2022-10-26T01:48:38;9.68;;;6.03;;
49488;SDS011;35382;51.484;11.476;2022-10-26T01:50:21;15.13;;;5.82;;
49488;SDS011;35382;51.484;11.476;2022-10-26T01:52:03;10.82;;;6.07;;
49488;SDS011;35382;51.484;11.476;2022-10-26T01:53:44;8.88;;;5.45;;
49488;SDS011;35382;51.484;11.476;2022-10-26T01:57:22;13.57;;;5.13;;
49488;SDS011;35382;51.484;11.476;2022-10-26T01:59:10;10.35;;;5.10;;
49488;SDS011;35382;51.484;11.476;2022-10-26T02:03:39;10.65;;;5.85;;
49488;SDS011;35382;51.484;11.476;2022-10-26T02:05:47;8.13;;;5.03;;
49488;SDS011;35382;51.484;11.476;2022-10-26T02:17:48;10.85;;;4.53;;
49488;SDS011;35382;51.484;11.476;2022-10-26T02:21:06;11.77;;;4.68;;
49488;SDS011;35382;51.484;11.476;2022-10-26T02:22:51;8.57;;;4.20;;
49488;SDS011;35382;51.484;11.476;2022-10-26T02:24:34;11.00;;;4.30;;
49488;SDS011;35382;51.484;11.476;2022-10-26T02:26:18;7.43;;;4.90;;
49488;SDS011;35382;51.484;11.476;2022-10-26T02:28:05;8.57;;;4.25;;
49488;SDS011;35382;51.484;11.476;2022-10-26T02:29:47;6.97;;;4.03;;
49488;SDS011;35382;51.484;11.476;2022-10-26T02:31:30;7.95;;;4.20;;
49488;SDS011;35382;51.484;11.476;2022-10-26T02:33:13;9.07;;;4.63;;
49488;SDS011;35382;51.484;11.476;2022-10-26T02:34:56;9.90;;;4.32;;
49488;SDS011;35382;51.484;11.476;2022-10-26T02:36:40;9.02;;;4.45;;
49488;SDS011;35382;51.484;11.476;2022-10-26T02:38:24;10.30;;;4.40;;
49488;SDS011;35382;51.484;11.476;2022-10-26T02:40:08;9.80;;;4.55;;
49488;SDS011;35382;51.484;11.476;2022-10-26T02:41:52;9.40;;;4.15;;
49488;SDS011;35382;51.484;11.476;2022-10-26T02:43:36;7.53;;;4.03;;
49488;SDS011;35382;51.484;11.476;2022-10-26T02:45:22;9.65;;;4.45;;
49488;SDS011;35382;51.484;11.476;2022-10-26T02:47:06;8.45;;;4.30;;
49488;SDS011;35382;51.484;11.476;2022-10-26T02:48:48;7.78;;;4.40;;
49488;SDS011;35382;51.484;11.476;2022-10-26T02:50:31;9.10;;;4.43;;
49488;SDS011;35382;51.484;11.476;2022-10-26T02:52:28;9.43;;;4.53;;
49488;SDS011;35382;51.484;11.476;2022-10-26T02:56:33;9.68;;;3.83;;
49488;SDS011;35382;51.484;11.476;2022-10-26T02:58:25;9.57;;;4.72;;
49488;SDS011;35382;51.484;11.476;2022-10-26T03:00:10;6.82;;;4.18;;
49488;SDS011;35382;51.484;11.476;2022-10-26T03:01:54;8.38;;;3.72;;
49488;SDS011;35382;51.484;11.476;2022-10-26T03:03:37;7.95;;;3.40;;
49488;SDS011;35382;51.484;11.476;2022-10-26T03:05:22;7.85;;;3.75;;
49488;SDS011;35382;51.484;11.476;2022-10-26T03:07:05;8.47;;;3.57;;
49488;SDS011;35382;51.484;11.476;2022-10-26T03:08:46;6.50;;;3.90;;
49488;SDS011;35382;51.484;11.476;2022-10-26T03:10:27;10.52;;;3.42;;
49488;SDS011;35382;51.484;11.476;2022-10-26T03:12:08;7.82;;;4.28;;
49488;SDS011;35382;51.484;11.476;2022-10-26T03:13:49;8.40;;;4.10;;
49488;SDS011;35382;51.484;11.476;2022-10-26T03:15:30;7.70;;;4.28;;
49488;SDS011;35382;51.484;11.476;2022-10-26T03:17:11;11.15;;;4.00;;
49488;SDS011;35382;51.484;11.476;2022-10-26T03:18:52;13.18;;;4.07;;
49488;SDS011;35382;51.484;11.476;2022-10-26T03:20:33;7.32;;;3.20;;
49488;SDS011;35382;51.484;11.476;2022-10-26T03:22:14;9.00;;;3.80;;
49488;SDS011;35382;51.484;11.476;2022-10-26T03:23:55;6.43;;;3.33;;
49488;SDS011;35382;51.484;11.476;2022-10-26T03:25:36;8.27;;;3.47;;
49488;SDS011;35382;51.484;11.476;2022-10-26T03:27:17;8.30;;;3.85;;
49488;SDS011;35382;51.484;11.476;2022-10-26T03:28:58;8.50;;;3.85;;
49488;SDS011;35382;51.484;11.476;2022-10-26T03:30:39;8.20;;;3.83;;
49488;SDS011;35382;51.484;11.476;2022-10-26T03:32:20;12.30;;;4.32;;
49488;SDS011;35382;51.484;11.476;2022-10-26T03:34:01;9.90;;;3.72;;
49488;SDS011;35382;51.484;11.476;2022-10-26T03:35:41;9.02;;;3.80;;
49488;SDS011;35382;51.484;11.476;2022-10-26T03:37:22;8.48;;;3.90;;
49488;SDS011;35382;51.484;11.476;2022-10-26T03:39:03;9.80;;;4.10;;
49488;SDS011;35382;51.484;11.476;2022-10-26T03:40:44;9.93;;;4.60;;
49488;SDS011;35382;51.484;11.476;2022-10-26T03:42:28;7.35;;;4.13;;
49488;SDS011;35382;51.484;11.476;2022-10-26T03:44:13;9.95;;;3.85;;
49488;SDS011;35382;51.484;11.476;2022-10-26T03:45:54;9.02;;;4.07;;
49488;SDS011;35382;51.484;11.476;2022-10-26T03:47:44;7.50;;;3.97;;
49488;SDS011;35382;51.484;11.476;2022-10-26T03:49:26;10.52;;;4.30;;
49488;SDS011;35382;51.484;11.476;2022-10-26T03:51:07;9.02;;;3.67;;
49488;SDS011;35382;51.484;11.476;2022-10-26T03:52:48;7.22;;;3.60;;
49488;SDS011;35382;51.484;11.476;2022-10-26T03:54:29;7.45;;;3.72;;
49488;SDS011;35382;51.484;11.476;2022-10-26T03:56:10;7.65;;;3.63;;
49488;SDS011;35382;51.484;11.476;2022-10-26T03:57:51;8.15;;;3.75;;
49488;SDS011;35382;51.484;11.476;2022-10-26T03:59:32;7.03;;;3.70;;
49488;SDS011;35382;51.484;11.476;2022-10-26T04:01:13;6.28;;;3.63;;
49488;SDS011;35382;51.484;11.476;2022-10-26T04:02:55;9.38;;;3.90;;
49488;SDS011;35382;51.484;11.476;2022-10-26T04:04:37;10.32;;;3.95;;
49488;SDS011;35382;51.484;11.476;2022-10-26T04:06:18;7.03;;;3.85;;
49488;SDS011;35382;51.484;11.476;2022-10-26T04:08:00;9.10;;;3.22;;
49488;SDS011;35382;51.484;11.476;2022-10-26T04:09:44;7.65;;;3.50;;
49488;SDS011;35382;51.484;11.476;2022-10-26T04:11:25;7.85;;;3.65;;
49488;SDS011;35382;51.484;11.476;2022-10-26T04:13:07;10.23;;;3.70;;
49488;SDS011;35382;51.484;11.476;2022-10-26T04:14:49;5.90;;;3.35;;
49488;SDS011;35382;51.484;11.476;2022-10-26T04:16:30;6.15;;;3.25;;
49488;SDS011;35382;51.484;11.476;2022-10-26T04:18:11;8.15;;;3.50;;
49488;SDS011;35382;51.484;11.476;2022-10-26T04:19:52;9.05;;;4.10;;
49488;SDS011;35382;51.484;11.476;2022-10-26T04:21:33;9.15;;;3.90;;
49488;SDS011;35382;51.484;11.476;2022-10-26T04:23:15;7.60;;;3.50;;
49488;SDS011;35382;51.484;11.476;2022-10-26T04:24:58;5.18;;;3.38;;
49488;SDS011;35382;51.484;11.476;2022-10-26T04:26:39;5.50;;;3.03;;
49488;SDS011;35382;51.484;11.476;2022-10-26T04:28:19;8.50;;;4.05;;
49488;SDS011;35382;51.484;11.476;2022-10-26T04:30:01;9.10;;;4.53;;
49488;SDS011;35382;51.484;11.476;2022-10-26T04:31:41;8.98;;;4.85;;
49488;SDS011;35382;51.484;11.476;2022-10-26T04:33:22;10.68;;;4.47;;
49488;SDS011;35382;51.484;11.476;2022-10-26T04:35:03;14.65;;;5.07;;
49488;SDS011;35382;51.484;11.476;2022-10-26T04:36:44;7.53;;;3.95;;
49488;SDS011;35382;51.484;11.476;2022-10-26T04:38:26;8.45;;;4.45;;
49488;SDS011;35382;51.484;11.476;2022-10-26T04:40:07;9.15;;;4.95;;
49488;SDS011;35382;51.484;11.476;2022-10-26T04:41:48;9.70;;;4.50;;
49488;SDS011;35382;51.484;11.476;2022-10-26T04:43:29;8.23;;;3.83;;
49488;SDS011;35382;51.484;11.476;2022-10-26T04:45:10;10.38;;;4.20;;
49488;SDS011;35382;51.484;11.476;2022-10-26T04:46:52;8.00;;;3.80;;
49488;SDS011;35382;51.484;11.476;2022-10-26T04:48:33;6.45;;;3.50;;
49488;SDS011;35382;51.484;11.476;2022-10-26T04:50:14;8.38;;;3.42;;
49488;SDS011;35382;51.484;11.476;2022-10-26T04:51:55;7.55;;;3.70;;
49488;SDS011;35382;51.484;11.476;2022-10-26T04:53:36;7.55;;;3.80;;
49488;SDS011;35382;51.484;11.476;2022-10-26T04:55:17;9.20;;;4.65;;
49488;SDS011;35382;51.484;11.476;2022-10-26T04:56:58;10.75;;;3.78;;
49488;SDS011;35382;51.484;11.476;2022-10-26T04:58:39;12.18;;;3.90;;
49488;SDS011;35382;51.484;11.476;2022-10-26T05:00:20;9.70;;;4.07;;
49488;SDS011;35382;51.484;11.476;2022-10-26T05:02:01;7.25;;;3.50;;
49488;SDS011;35382;51.484;11.476;2022-10-26T05:03:42;8.18;;;3.28;;
49488;SDS011;35382;51.484;11.476;2022-10-26T05:05:23;6.38;;;3.40;;
49488;SDS011;35382;51.484;11.476;2022-10-26T05:07:04;8.07;;;3.45;;
49488;SDS011;35382;51.484;11.476;2022-10-26T05:08:44;6.38;;;3.67;;
49488;SDS011;35382;51.484;11.476;2022-10-26T05:10:26;8.25;;;3.72;;
49488;SDS011;35382;51.484;11.476;2022-10-26T05:12:07;7.03;;;3.40;;
49488;SDS011;35382;51.484;11.476;2022-10-26T05:13:48;8.70;;;3.70;;
49488;SDS011;35382;51.484;11.476;2022-10-26T05:15:29;7.88;;;3.50;;
49488;SDS011;35382;51.484;11.476;2022-10-26T05:17:10;10.25;;;3.60;;
49488;SDS011;35382;51.484;11.476;2022-10-26T05:18:51;7.15;;;3.17;;
49488;SDS011;35382;51.484;11.476;2022-10-26T05:20:32;8.45;;;3.28;;
49488;SDS011;35382;51.484;11.476;2022-10-26T05:22:14;6.97;;;3.33;;
49488;SDS011;35382;51.484;11.476;2022-10-26T05:23:55;10.57;;;3.30;;
49488;SDS011;35382;51.484;11.476;2022-10-26T05:25:36;9.55;;;3.88;;
49488;SDS011;35382;51.484;11.476;2022-10-26T05:27:17;10.85;;;3.72;;
49488;SDS011;35382;51.484;11.476;2022-10-26T05:28:58;7.93;;;4.03;;
49488;SDS011;35382;51.484;11.476;2022-10-26T05:30:40;7.47;;;3.80;;
49488;SDS011;35382;51.484;11.476;2022-10-26T05:32:22;5.63;;;3.10;;
49488;SDS011;35382;51.484;11.476;2022-10-26T05:34:03;7.15;;;3.10;;
49488;SDS011;35382;51.484;11.476;2022-10-26T05:35:43;7.32;;;3.67;;
49488;SDS011;35382;51.484;11.476;2022-10-26T05:37:27;8.55;;;3.22;;
49488;SDS011;35382;51.484;11.476;2022-10-26T05:39:09;8.82;;;3.25;;
49488;SDS011;35382;51.484;11.476;2022-10-26T05:40:50;6.80;;;3.33;;
49488;SDS011;35382;51.484;11.476;2022-10-26T05:42:32;7.82;;;3.78;;
49488;SDS011;35382;51.484;11.476;2022-10-26T05:44:13;7.75;;;3.30;;
49488;SDS011;35382;51.484;11.476;2022-10-26T05:45:54;6.68;;;2.75;;
49488;SDS011;35382;51.484;11.476;2022-10-26T05:47:39;7.78;;;3.40;;
49488;SDS011;35382;51.484;11.476;2022-10-26T05:49:21;8.73;;;3.50;;
49488;SDS011;35382;51.484;11.476;2022-10-26T05:51:02;6.32;;;3.25;;
49488;SDS011;35382;51.484;11.476;2022-10-26T05:52:43;7.53;;;3.25;;
49488;SDS011;35382;51.484;11.476;2022-10-26T05:54:25;8.35;;;3.95;;
49488;SDS011;35382;51.484;11.476;2022-10-26T05:56:15;9.40;;;3.95;;
49488;SDS011;35382;51.484;11.476;2022-10-26T05:58:00;8.45;;;4.10;;
49488;SDS011;35382;51.484;11.476;2022-10-26T05:59:41;7.63;;;3.55;;
49488;SDS011;35382;51.484;11.476;2022-10-26T06:03:58;7.72;;;3.50;;
49488;SDS011;35382;51.484;11.476;2022-10-26T06:06:05;5.57;;;3.17;;
49488;SDS011;35382;51.484;11.476;2022-10-26T06:07:47;7.55;;;2.95;;
49488;SDS011;35382;51.484;11.476;2022-10-26T06:09:28;6.93;;;3.65;;
49488;SDS011;35382;51.484;11.476;2022-10-26T06:11:09;6.55;;;3.50;;
49488;SDS011;35382;51.484;11.476;2022-10-26T06:12:51;9.70;;;3.38;;
49488;SDS011;35382;51.484;11.476;2022-10-26T06:14:32;6.43;;;3.90;;
49488;SDS011;35382;51.484;11.476;2022-10-26T06:18:20;6.25;;;4.15;;
49488;SDS011;35382;51.484;11.476;2022-10-26T06:30:01;8.13;;;3.97;;
49488;SDS011;35382;51.484;11.476;2022-10-26T06:31:46;7.55;;;4.03;;
49488;SDS011;35382;51.484;11.476;2022-10-26T06:33:27;7.93;;;4.07;;
49488;SDS011;35382;51.484;11.476;2022-10-26T06:35:21;8.02;;;3.63;;
49488;SDS011;35382;51.484;11.476;2022-10-26T06:37:12;9.82;;;4.10;;
49488;SDS011;35382;51.484;11.476;2022-10-26T06:38:55;9.70;;;4.28;;
49488;SDS011;35382;51.484;11.476;2022-10-26T06:40:42;10.18;;;4.22;;
49488;SDS011;35382;51.484;11.476;2022-10-26T06:42:25;8.32;;;3.38;;
49488;SDS011;35382;51.484;11.476;2022-10-26T06:44:07;10.02;;;3.75;;
49488;SDS011;35382;51.484;11.476;2022-10-26T06:46:13;7.35;;;3.38;;
49488;SDS011;35382;51.484;11.476;2022-10-26T06:48:15;6.70;;;3.20;;
49488;SDS011;35382;51.484;11.476;2022-10-26T06:50:18;6.95;;;3.95;;
49488;SDS011;35382;51.484;11.476;2022-10-26T06:52:12;6.25;;;3.22;;
49488;SDS011;35382;51.484;11.476;2022-10-26T06:54:05;8.90;;;3.72;;
49488;SDS011;35382;51.484;11.476;2022-10-26T06:55:53;6.22;;;3.80;;
49488;SDS011;35382;51.484;11.476;2022-10-26T06:57:36;8.30;;;4.07;;
49488;SDS011;35382;51.484;11.476;2022-10-26T06:59:22;11.25;;;5.10;;
49488;SDS011;35382;51.484;11.476;2022-10-26T07:01:12;9.43;;;4.82;;
49488;SDS011;35382;51.484;11.476;2022-10-26T07:02:53;9.65;;;4.80;;
49488;SDS011;35382;51.484;11.476;2022-10-26T07:04:34;8.57;;;4.38;;
49488;SDS011;35382;51.484;11.476;2022-10-26T07:06:15;7.35;;;4.18;;
49488;SDS011;35382;51.484;11.476;2022-10-26T07:07:56;7.50;;;4.20;;
49488;SDS011;35382;51.484;11.476;2022-10-26T07:09:37;6.85;;;3.90;;
49488;SDS011;35382;51.484;11.476;2022-10-26T07:11:18;8.90;;;3.90;;
49488;SDS011;35382;51.484;11.476;2022-10-26T07:12:59;9.40;;;3.75;;
49488;SDS011;35382;51.484;11.476;2022-10-26T07:14:40;7.68;;;3.97;;
49488;SDS011;35382;51.484;11.476;2022-10-26T07:16:21;9.32;;;4.07;;
49488;SDS011;35382;51.484;11.476;2022-10-26T07:18:03;7.95;;;4.07;;
49488;SDS011;35382;51.484;11.476;2022-10-26T07:19:45;6.18;;;3.72;;
49488;SDS011;35382;51.484;11.476;2022-10-26T07:21:26;7.07;;;3.85;;
49488;SDS011;35382;51.484;11.476;2022-10-26T07:23:08;6.32;;;3.78;;
49488;SDS011;35382;51.484;11.476;2022-10-26T07:24:52;8.32;;;3.50;;
49488;SDS011;35382;51.484;11.476;2022-10-26T07:26:33;7.50;;;3.08;;
49488;SDS011;35382;51.484;11.476;2022-10-26T07:28:14;6.88;;;3.40;;
49488;SDS011;35382;51.484;11.476;2022-10-26T07:29:54;8.02;;;3.22;;
49488;SDS011;35382;51.484;11.476;2022-10-26T07:31:35;7.15;;;3.47;;
49488;SDS011;35382;51.484;11.476;2022-10-26T07:33:16;6.80;;;2.92;;
49488;SDS011;35382;51.484;11.476;2022-10-26T07:34:58;6.57;;;3.25;;
49488;SDS011;35382;51.484;11.476;2022-10-26T07:36:39;6.35;;;3.03;;
49488;SDS011;35382;51.484;11.476;2022-10-26T07:38:20;6.75;;;3.20;;
49488;SDS011;35382;51.484;11.476;2022-10-26T07:40:01;6.97;;;3.58;;
49488;SDS011;35382;51.484;11.476;2022-10-26T07:41:43;6.60;;;3.30;;
49488;SDS011;35382;51.484;11.476;2022-10-26T07:43:25;6.82;;;3.55;;
49488;SDS011;35382;51.484;11.476;2022-10-26T07:45:06;8.65;;;3.25;;
49488;SDS011;35382;51.484;11.476;2022-10-26T07:46:47;6.95;;;3.55;;
49488;SDS011;35382;51.484;11.476;2022-10-26T07:48:28;8.23;;;4.32;;
49488;SDS011;35382;51.484;11.476;2022-10-26T07:50:09;8.70;;;4.28;;
49488;SDS011;35382;51.484;11.476;2022-10-26T07:51:51;7.05;;;4.78;;
49488;SDS011;35382;51.484;11.476;2022-10-26T07:53:32;10.48;;;4.82;;
49488;SDS011;35382;51.484;11.476;2022-10-26T07:55:13;7.78;;;5.28;;
49488;SDS011;35382;51.484;11.476;2022-10-26T07:56:54;10.02;;;5.10;;
49488;SDS011;35382;51.484;11.476;2022-10-26T07:58:35;9.07;;;4.78;;
49488;SDS011;35382;51.484;11.476;2022-10-26T08:00:16;10.57;;;4.60;;
49488;SDS011;35382;51.484;11.476;2022-10-26T08:01:57;7.30;;;4.60;;
49488;SDS011;35382;51.484;11.476;2022-10-26T08:03:38;9.05;;;5.00;;
49488;SDS011;35382;51.484;11.476;2022-10-26T08:05:20;9.43;;;5.50;;
49488;SDS011;35382;51.484;11.476;2022-10-26T08:07:01;8.35;;;4.32;;
49488;SDS011;35382;51.484;11.476;2022-10-26T08:08:42;8.32;;;4.93;;
49488;SDS011;35382;51.484;11.476;2022-10-26T08:10:23;10.27;;;5.25;;
49488;SDS011;35382;51.484;11.476;2022-10-26T08:12:04;9.45;;;5.30;;
49488;SDS011;35382;51.484;11.476;2022-10-26T08:13:45;10.05;;;5.97;;
49488;SDS011;35382;51.484;11.476;2022-10-26T08:15:26;12.55;;;5.63;;
49488;SDS011;35382;51.484;11.476;2022-10-26T08:17:07;7.68;;;5.00;;
49488;SDS011;35382;51.484;11.476;2022-10-26T08:18:49;10.07;;;5.10;;
49488;SDS011;35382;51.484;11.476;2022-10-26T08:20:31;6.63;;;4.80;;
49488;SDS011;35382;51.484;11.476;2022-10-26T08:22:12;10.38;;;5.35;;
49488;SDS011;35382;51.484;11.476;2022-10-26T08:23:53;7.43;;;4.60;;
49488;SDS011;35382;51.484;11.476;2022-10-26T08:25:34;10.95;;;5.25;;
49488;SDS011;35382;51.484;11.476;2022-10-26T08:27:15;9.70;;;5.07;;
49488;SDS011;35382;51.484;11.476;2022-10-26T08:28:56;7.40;;;5.28;;
49488;SDS011;35382;51.484;11.476;2022-10-26T08:30:37;9.23;;;5.40;;
49488;SDS011;35382;51.484;11.476;2022-10-26T08:32:18;12.30;;;5.95;;
49488;SDS011;35382;51.484;11.476;2022-10-26T08:33:58;8.90;;;5.85;;
49488;SDS011;35382;51.484;11.476;2022-10-26T08:35:39;8.48;;;6.07;;
49488;SDS011;35382;51.484;11.476;2022-10-26T08:37:20;10.05;;;5.90;;
49488;SDS011;35382;51.484;11.476;2022-10-26T08:39:02;9.32;;;5.97;;
49488;SDS011;35382;51.484;11.476;2022-10-26T08:40:43;9.50;;;5.90;;
49488;SDS011;35382;51.484;11.476;2022-10-26T08:42:27;11.50;;;6.65;;
49488;SDS011;35382;51.484;11.476;2022-10-26T08:46:13;10.20;;;5.97;;
49488;SDS011;35382;51.484;11.476;2022-10-26T08:47:58;8.98;;;5.40;;
49488;SDS011;35382;51.484;11.476;2022-10-26T08:49:48;9.95;;;5.88;;
49488;SDS011;35382;51.484;11.476;2022-10-26T08:51:36;10.00;;;5.65;;
49488;SDS011;35382;51.484;11.476;2022-10-26T08:55:13;9.57;;;5.43;;
49488;SDS011;35382;51.484;11.476;2022-10-26T08:56:57;10.57;;;5.55;;
49488;SDS011;35382;51.484;11.476;2022-10-26T08:58:45;9.48;;;5.50;;
49488;SDS011;35382;51.484;11.476;2022-10-26T09:00:33;8.25;;;5.50;;
49488;SDS011;35382;51.484;11.476;2022-10-26T09:02:15;11.32;;;5.60;;
49488;SDS011;35382;51.484;11.476;2022-10-26T09:03:57;9.38;;;5.80;;
49488;SDS011;35382;51.484;11.476;2022-10-26T09:08:10;11.40;;;6.38;;
49488;SDS011;35382;51.484;11.476;2022-10-26T09:18:06;12.45;;;6.30;;
49488;SDS011;35382;51.484;11.476;2022-10-26T09:22:03;11.85;;;6.20;;
49488;SDS011;35382;51.484;11.476;2022-10-26T09:24:05;8.43;;;5.22;;
49488;SDS011;35382;51.484;11.476;2022-10-26T09:25:59;7.82;;;5.72;;
49488;SDS011;35382;51.484;11.476;2022-10-26T09:27:42;13.20;;;6.50;;
49488;SDS011;35382;51.484;11.476;2022-10-26T09:29:28;13.77;;;5.53;;
49488;SDS011;35382;51.484;11.476;2022-10-26T09:31:18;8.93;;;5.68;;
49488;SDS011;35382;51.484;11.476;2022-10-26T09:33:01;8.13;;;5.30;;
49488;SDS011;35382;51.484;11.476;2022-10-26T09:36:31;8.45;;;4.80;;
49488;SDS011;35382;51.484;11.476;2022-10-26T09:38:22;12.57;;;5.22;;
49488;SDS011;35382;51.484;11.476;2022-10-26T09:42:13;8.00;;;4.80;;
49488;SDS011;35382;51.484;11.476;2022-10-26T09:44:05;8.40;;;4.95;;
49488;SDS011;35382;51.484;11.476;2022-10-26T09:45:52;11.40;;;5.95;;
49488;SDS011;35382;51.484;11.476;2022-10-26T09:47:34;8.50;;;5.38;;
49488;SDS011;35382;51.484;11.476;2022-10-26T09:49:18;11.13;;;5.18;;
49488;SDS011;35382;51.484;11.476;2022-10-26T09:51:03;8.63;;;5.30;;
49488;SDS011;35382;51.484;11.476;2022-10-26T09:52:44;10.10;;;5.13;;
49488;SDS011;35382;51.484;11.476;2022-10-26T09:54:25;8.98;;;5.47;;
49488;SDS011;35382;51.484;11.476;2022-10-26T09:56:07;9.00;;;5.10;;
49488;SDS011;35382;51.484;11.476;2022-10-26T09:57:54;9.15;;;4.70;;
49488;SDS011;35382;51.484;11.476;2022-10-26T09:59:37;6.57;;;4.38;;
49488;SDS011;35382;51.484;11.476;2022-10-26T10:03:17;8.18;;;4.70;;
49488;SDS011;35382;51.484;11.476;2022-10-26T10:05:22;7.35;;;4.15;;
49488;SDS011;35382;51.484;11.476;2022-10-26T10:07:16;6.93;;;4.43;;
49488;SDS011;35382;51.484;11.476;2022-10-26T10:09:05;9.00;;;4.40;;
49488;SDS011;35382;51.484;11.476;2022-10-26T10:11:01;8.52;;;4.30;;
49488;SDS011;35382;51.484;11.476;2022-10-26T10:12:45;8.18;;;4.80;;
49488;SDS011;35382;51.484;11.476;2022-10-26T10:14:31;8.93;;;4.15;;
49488;SDS011;35382;51.484;11.476;2022-10-26T10:16:21;6.03;;;4.03;;
49488;SDS011;35382;51.484;11.476;2022-10-26T10:18:03;8.52;;;4.00;;
49488;SDS011;35382;51.484;11.476;2022-10-26T10:19:44;8.15;;;4.30;;
49488;SDS011;35382;51.484;11.476;2022-10-26T10:21:38;9.73;;;4.13;;
49488;SDS011;35382;51.484;11.476;2022-10-26T10:23:34;7.65;;;4.32;;
49488;SDS011;35382;51.484;11.476;2022-10-26T10:25:30;9.07;;;4.65;;
49488;SDS011;35382;51.484;11.476;2022-10-26T10:29:00;8.38;;;3.90;;
49488;SDS011;35382;51.484;11.476;2022-10-26T10:30:43;6.10;;;3.83;;
49488;SDS011;35382;51.484;11.476;2022-10-26T10:32:33;8.27;;;3.78;;
49488;SDS011;35382;51.484;11.476;2022-10-26T10:34:15;8.30;;;3.97;;
49488;SDS011;35382;51.484;11.476;2022-10-26T10:35:56;6.45;;;3.50;;
49488;SDS011;35382;51.484;11.476;2022-10-26T10:37:38;10.68;;;3.92;;
49488;SDS011;35382;51.484;11.476;2022-10-26T10:39:34;6.72;;;3.63;;
49488;SDS011;35382;51.484;11.476;2022-10-26T10:43:12;8.20;;;3.08;;
49488;SDS011;35382;51.484;11.476;2022-10-26T10:44:54;7.72;;;3.50;;
49488;SDS011;35382;51.484;11.476;2022-10-26T10:46:36;6.60;;;3.47;;
49488;SDS011;35382;51.484;11.476;2022-10-26T10:48:18;8.15;;;3.70;;
49488;SDS011;35382;51.484;11.476;2022-10-26T10:50:06;9.13;;;4.05;;
49488;SDS011;35382;51.484;11.476;2022-10-26T10:51:55;9.70;;;4.13;;
49488;SDS011;35382;51.484;11.476;2022-10-26T10:53:47;11.18;;;4.65;;
49488;SDS011;35382;51.484;11.476;2022-10-26T10:55:30;8.32;;;4.55;;
49488;SDS011;35382;51.484;11.476;2022-10-26T10:57:17;8.20;;;4.72;;
49488;SDS011;35382;51.484;11.476;2022-10-26T11:01:15;7.80;;;4.40;;
49488;SDS011;35382;51.484;11.476;2022-10-26T11:06:42;8.85;;;4.53;;
49488;SDS011;35382;51.484;11.476;2022-10-26T11:10:08;12.10;;;4.38;;
49488;SDS011;35382;51.484;11.476;2022-10-26T11:12:02;9.38;;;4.60;;
49488;SDS011;35382;51.484;11.476;2022-10-26T11:14:01;7.47;;;4.32;;
49488;SDS011;35382;51.484;11.476;2022-10-26T11:15:43;8.90;;;4.65;;
49488;SDS011;35382;51.484;11.476;2022-10-26T11:17:29;8.35;;;3.83;;
49488;SDS011;35382;51.484;11.476;2022-10-26T11:19:16;9.55;;;4.75;;
49488;SDS011;35382;51.484;11.476;2022-10-26T11:24:46;7.03;;;4.30;;
49488;SDS011;35382;51.484;11.476;2022-10-26T11:26:35;5.53;;;3.30;;
49488;SDS011;35382;51.484;11.476;2022-10-26T11:30:18;5.85;;;3.00;;
49488;SDS011;35382;51.484;11.476;2022-10-26T11:32:02;8.10;;;3.13;;
49488;SDS011;35382;51.484;11.476;2022-10-26T11:34:09;4.97;;;2.50;;
49488;SDS011;35382;51.484;11.476;2022-10-26T11:37:48;5.15;;;2.33;;
49488;SDS011;35382;51.484;11.476;2022-10-26T11:39:43;7.88;;;2.72;;
49488;SDS011;35382;51.484;11.476;2022-10-26T11:42:00;5.15;;;2.30;;
49488;SDS011;35382;51.484;11.476;2022-10-26T11:43:43;5.80;;;2.30;;